Pagrindinis puslapis
METAR-TAF:

METAR-TAF

Oro uostai :

Japanese Ground Self Defense Force

Tokachi-Obihiro, Japonija

platuma: 42-54N, ilguma: 143-10E, Aukštis: 84 m

Dabartinis oras

Ataskaita buvo paskelbta 1 valandą ir 19 minutes, ne 01:34 UTC
Vėjas 3 kt iš Šiaurės/Šiaurės Vakarų
Temperatūra -3°C
Drėgmė 86%
Slėgis 1009 hPa
Matomumas: 2000 m
Mažai debesys ne aukštis 500 ft
Su prošvaistėmis ne aukštis 800 ft
Su prošvaistėmis ne aukštis 1500 ft
sniegas

METAR: RJCT 200134Z 33003KT 2000 -SHSN FEW005 BKN008 BKN015 M03/M05 Q1009 RMK 1ST005 5ST008 7CU015 A2980

Laikas: 11:53 (02:53 UTC)


TAF: trūkstamas

Orai ataskaitas ir orų prognozės (METAR, TAF).

turimą stotys yra geltonos ir raudonos taškus žemėlapyje.

Perkelti pele per norėdami pamatyti stoties vardą.

Tada spustelėkite, norėdami matyti oro stebėjimo ir prognozės.

Norėdami pakeisti žemėlapį: spustelėkite ant žalios mygtukų su juodo kryžiaus žemyn,; žalią mygtuką su brūkšneliu, jei norite nutolinti; arba žalių rodyklių gretimoms žemėlapius.


METAR-TAF: